SBOSBO DEL / VIDP
Speedbird OnlineSpeedbird Online DEL / VIDP

Indira Gandhi International Airport
15:58 37°C

Location Delhi, India
Latitude: 28.5665
Longitude: 77.103104
Local Time 15:58 on 12 Apr 2024
UTC +5.5 hours (Asia/Calcutta)
Currency £1 equals INR 104.63
METAR VIDP 121000Z 12003KT 5000 HZ FEW100 37/04 Q1009 NOSIG
TAF TAF VIDP 120800Z 1209/1218 02004KT 3500 HZ FEW100 BECMG 1215/1217 07004KT 4000 HZ FEW035 SCT100
Weather As Of 12 Apr 2024 15:56
Description Haze
Wind 6 km/h from South-East (120°)
Cloud Cover 20%
Precipitation Rain: none, Snow: none
Sunrise 05:59
Sunset 18:45
NOTAM 117 active NOTAM
Rotations During the last 90 days there were
159 flights from LHR
1 flights from BOM
165 flights to LHR
Lounges Encalm Prive Lounge, Terminal 3
Plaza Premium Lounge (Temporarily Closed), Terminal 3
ITC Green Lounge (Temporarily Closed), Terminal 3
Web Airport Website | Wikipedia
Codes IATA: DEL
ICAO: VIDP
Altitude 237 Meter / 777 Feet
Distance 6,690 KM / 4,157 Miles
from London.
Runways
RunwayLength (m)Surface
092813Asphalt
103810Asphalt
114430paved
272813Asphalt
283810Asphalt
294430paved
Radio
TypeDescriptionFrequency
APPDELHI APP126.35
AREA CONTROL (E)DELHI CONTROL120.9
AREA CONTROL (W)DELHI CONTROL124.55
ATISATIS126.4
CLDClearance Delivery121.95
GNDSMC121.625
GNDDELHI GND121.9
TWRDELHI TWR rwy28/10118.1
TWRDELHI TWR RWY 29/11118.25
TWRDELHI TWR Rwy 27/09118.75
Live ATC



Support Speedbird Online

© 2017-2024 Speedbird Online